sensor_id;sensor_type;location;lat;lon;timestamp;P1;durP1;ratioP1;P2;durP2;ratioP2
48205;SDS011;33995;48.202;16.260;2023-10-08T00:01:54;6.03;;;3.30;;
48205;SDS011;33995;48.202;16.260;2023-10-08T00:04:25;5.83;;;3.10;;
48205;SDS011;33995;48.202;16.260;2023-10-08T00:06:56;4.83;;;3.50;;
48205;SDS011;33995;48.202;16.260;2023-10-08T00:09:25;4.40;;;3.00;;
48205;SDS011;33995;48.202;16.260;2023-10-08T00:11:55;4.23;;;2.93;;
48205;SDS011;33995;48.202;16.260;2023-10-08T00:14:23;6.17;;;3.43;;
48205;SDS011;33995;48.202;16.260;2023-10-08T00:16:50;6.13;;;3.17;;
48205;SDS011;33995;48.202;16.260;2023-10-08T00:19:20;6.33;;;3.20;;
48205;SDS011;33995;48.202;16.260;2023-10-08T00:21:49;5.60;;;3.60;;
48205;SDS011;33995;48.202;16.260;2023-10-08T00:24:25;7.00;;;3.50;;
48205;SDS011;33995;48.202;16.260;2023-10-08T00:26:56;4.30;;;3.10;;
48205;SDS011;33995;48.202;16.260;2023-10-08T00:29:27;4.37;;;3.27;;
48205;SDS011;33995;48.202;16.260;2023-10-08T00:32:00;4.30;;;3.27;;
48205;SDS011;33995;48.202;16.260;2023-10-08T00:34:41;4.97;;;3.20;;
48205;SDS011;33995;48.202;16.260;2023-10-08T00:37:11;4.87;;;3.20;;
48205;SDS011;33995;48.202;16.260;2023-10-08T00:39:45;4.80;;;3.40;;
48205;SDS011;33995;48.202;16.260;2023-10-08T00:42:12;7.33;;;3.43;;
48205;SDS011;33995;48.202;16.260;2023-10-08T00:44:46;5.30;;;3.53;;
48205;SDS011;33995;48.202;16.260;2023-10-08T00:47:23;6.00;;;3.40;;
48205;SDS011;33995;48.202;16.260;2023-10-08T00:49:55;5.67;;;3.20;;
48205;SDS011;33995;48.202;16.260;2023-10-08T00:52:35;6.17;;;3.37;;
48205;SDS011;33995;48.202;16.260;2023-10-08T00:55:30;5.13;;;3.40;;
48205;SDS011;33995;48.202;16.260;2023-10-08T00:58:06;5.27;;;3.50;;
48205;SDS011;33995;48.202;16.260;2023-10-08T01:01:02;6.50;;;3.80;;
48205;SDS011;33995;48.202;16.260;2023-10-08T01:03:30;5.60;;;3.57;;
48205;SDS011;33995;48.202;16.260;2023-10-08T01:06:06;5.67;;;3.53;;
48205;SDS011;33995;48.202;16.260;2023-10-08T01:08:40;5.90;;;3.63;;
48205;SDS011;33995;48.202;16.260;2023-10-08T01:11:23;6.40;;;3.50;;
48205;SDS011;33995;48.202;16.260;2023-10-08T01:14:16;6.37;;;3.63;;
48205;SDS011;33995;48.202;16.260;2023-10-08T01:16:49;5.87;;;3.30;;
48205;SDS011;33995;48.202;16.260;2023-10-08T01:19:21;6.37;;;3.73;;
48205;SDS011;33995;48.202;16.260;2023-10-08T01:21:48;7.13;;;3.53;;
48205;SDS011;33995;48.202;16.260;2023-10-08T01:24:19;4.63;;;3.63;;
48205;SDS011;33995;48.202;16.260;2023-10-08T01:26:51;4.67;;;3.40;;
48205;SDS011;33995;48.202;16.260;2023-10-08T01:29:23;6.73;;;3.40;;
48205;SDS011;33995;48.202;16.260;2023-10-08T01:31:52;6.70;;;3.53;;
48205;SDS011;33995;48.202;16.260;2023-10-08T01:34:22;5.50;;;3.33;;
48205;SDS011;33995;48.202;16.260;2023-10-08T01:37:01;5.33;;;3.50;;
48205;SDS011;33995;48.202;16.260;2023-10-08T01:39:39;8.60;;;3.43;;
48205;SDS011;33995;48.202;16.260;2023-10-08T01:42:13;4.40;;;3.37;;
48205;SDS011;33995;48.202;16.260;2023-10-08T01:44:49;6.57;;;3.60;;
48205;SDS011;33995;48.202;16.260;2023-10-08T01:47:25;5.37;;;3.87;;
48205;SDS011;33995;48.202;16.260;2023-10-08T01:49:59;6.07;;;3.50;;
48205;SDS011;33995;48.202;16.260;2023-10-08T01:52:38;5.50;;;3.50;;
48205;SDS011;33995;48.202;16.260;2023-10-08T01:55:10;7.33;;;3.77;;
48205;SDS011;33995;48.202;16.260;2023-10-08T01:57:49;5.67;;;3.87;;
48205;SDS011;33995;48.202;16.260;2023-10-08T02:04:33;4.83;;;3.30;;
48205;SDS011;33995;48.202;16.260;2023-10-08T02:07:04;5.07;;;3.57;;
48205;SDS011;33995;48.202;16.260;2023-10-08T02:09:42;5.17;;;3.10;;
48205;SDS011;33995;48.202;16.260;2023-10-08T02:12:12;6.00;;;3.27;;
48205;SDS011;33995;48.202;16.260;2023-10-08T02:14:44;3.90;;;3.40;;
48205;SDS011;33995;48.202;16.260;2023-10-08T02:17:15;6.80;;;3.50;;
48205;SDS011;33995;48.202;16.260;2023-10-08T02:19:47;5.50;;;3.80;;
48205;SDS011;33995;48.202;16.260;2023-10-08T02:22:17;4.90;;;3.33;;
48205;SDS011;33995;48.202;16.260;2023-10-08T02:24:47;5.63;;;3.47;;
48205;SDS011;33995;48.202;16.260;2023-10-08T02:27:21;4.93;;;3.40;;
48205;SDS011;33995;48.202;16.260;2023-10-08T02:29:49;5.20;;;3.43;;
48205;SDS011;33995;48.202;16.260;2023-10-08T02:32:19;5.40;;;3.20;;
48205;SDS011;33995;48.202;16.260;2023-10-08T02:34:49;4.47;;;3.30;;
48205;SDS011;33995;48.202;16.260;2023-10-08T02:37:20;4.93;;;3.37;;
48205;SDS011;33995;48.202;16.260;2023-10-08T02:39:47;7.27;;;3.90;;
48205;SDS011;33995;48.202;16.260;2023-10-08T02:42:14;4.83;;;3.37;;
48205;SDS011;33995;48.202;16.260;2023-10-08T02:44:47;4.57;;;3.60;;
48205;SDS011;33995;48.202;16.260;2023-10-08T02:47:15;4.03;;;3.23;;
48205;SDS011;33995;48.202;16.260;2023-10-08T02:50:02;5.07;;;3.60;;
48205;SDS011;33995;48.202;16.260;2023-10-08T02:52:34;4.23;;;3.50;;
48205;SDS011;33995;48.202;16.260;2023-10-08T02:55:05;6.97;;;3.40;;
48205;SDS011;33995;48.202;16.260;2023-10-08T02:57:46;3.97;;;3.27;;
48205;SDS011;33995;48.202;16.260;2023-10-08T03:00:27;5.97;;;3.47;;
48205;SDS011;33995;48.202;16.260;2023-10-08T03:02:58;6.47;;;3.30;;
48205;SDS011;33995;48.202;16.260;2023-10-08T03:05:30;5.87;;;3.37;;
48205;SDS011;33995;48.202;16.260;2023-10-08T03:08:06;3.53;;;3.10;;
48205;SDS011;33995;48.202;16.260;2023-10-08T03:10:40;5.07;;;3.20;;
48205;SDS011;33995;48.202;16.260;2023-10-08T03:13:17;8.57;;;3.80;;
48205;SDS011;33995;48.202;16.260;2023-10-08T03:15:50;6.47;;;3.13;;
48205;SDS011;33995;48.202;16.260;2023-10-08T03:18:38;4.90;;;3.43;;
48205;SDS011;33995;48.202;16.260;2023-10-08T03:21:20;6.50;;;3.60;;
48205;SDS011;33995;48.202;16.260;2023-10-08T03:23:51;8.77;;;3.67;;
48205;SDS011;33995;48.202;16.260;2023-10-08T03:26:20;7.13;;;3.47;;
48205;SDS011;33995;48.202;16.260;2023-10-08T03:29:01;6.03;;;3.60;;
48205;SDS011;33995;48.202;16.260;2023-10-08T03:31:45;5.63;;;3.50;;
48205;SDS011;33995;48.202;16.260;2023-10-08T03:34:17;4.87;;;3.40;;
48205;SDS011;33995;48.202;16.260;2023-10-08T03:37:07;5.23;;;3.40;;
48205;SDS011;33995;48.202;16.260;2023-10-08T03:39:36;6.60;;;3.90;;
48205;SDS011;33995;48.202;16.260;2023-10-08T03:42:31;5.90;;;3.30;;
48205;SDS011;33995;48.202;16.260;2023-10-08T03:45:08;6.17;;;3.67;;
48205;SDS011;33995;48.202;16.260;2023-10-08T03:47:46;5.17;;;3.57;;
48205;SDS011;33995;48.202;16.260;2023-10-08T03:50:36;7.23;;;3.77;;
48205;SDS011;33995;48.202;16.260;2023-10-08T03:53:30;7.73;;;3.93;;
48205;SDS011;33995;48.202;16.260;2023-10-08T03:56:21;6.07;;;3.37;;
48205;SDS011;33995;48.202;16.260;2023-10-08T03:58:54;6.40;;;3.80;;
48205;SDS011;33995;48.202;16.260;2023-10-08T04:01:21;7.20;;;3.60;;
48205;SDS011;33995;48.202;16.260;2023-10-08T04:03:49;6.13;;;3.57;;
48205;SDS011;33995;48.202;16.260;2023-10-08T04:06:19;7.03;;;3.50;;
48205;SDS011;33995;48.202;16.260;2023-10-08T04:09:13;4.63;;;3.70;;
48205;SDS011;33995;48.202;16.260;2023-10-08T04:11:50;5.57;;;3.20;;
48205;SDS011;33995;48.202;16.260;2023-10-08T04:14:40;7.00;;;3.30;;
48205;SDS011;33995;48.202;16.260;2023-10-08T04:17:11;4.83;;;3.93;;
48205;SDS011;33995;48.202;16.260;2023-10-08T04:20:04;5.07;;;3.50;;
48205;SDS011;33995;48.202;16.260;2023-10-08T04:22:59;5.13;;;3.17;;
48205;SDS011;33995;48.202;16.260;2023-10-08T04:25:48;6.57;;;3.33;;
48205;SDS011;33995;48.202;16.260;2023-10-08T04:28:23;6.70;;;3.57;;
48205;SDS011;33995;48.202;16.260;2023-10-08T04:31:12;5.13;;;3.37;;
48205;SDS011;33995;48.202;16.260;2023-10-08T04:33:45;8.70;;;3.40;;
48205;SDS011;33995;48.202;16.260;2023-10-08T04:36:15;6.77;;;3.50;;
48205;SDS011;33995;48.202;16.260;2023-10-08T04:38:50;5.93;;;3.60;;
48205;SDS011;33995;48.202;16.260;2023-10-08T04:41:22;5.37;;;3.33;;
48205;SDS011;33995;48.202;16.260;2023-10-08T04:43:57;6.03;;;3.50;;
48205;SDS011;33995;48.202;16.260;2023-10-08T04:46:24;6.23;;;3.67;;
48205;SDS011;33995;48.202;16.260;2023-10-08T04:49:25;5.87;;;3.67;;
48205;SDS011;33995;48.202;16.260;2023-10-08T04:51:57;5.87;;;3.70;;
48205;SDS011;33995;48.202;16.260;2023-10-08T04:54:31;6.17;;;3.60;;
48205;SDS011;33995;48.202;16.260;2023-10-08T04:57:07;5.53;;;3.40;;
48205;SDS011;33995;48.202;16.260;2023-10-08T04:59:43;5.10;;;3.50;;
48205;SDS011;33995;48.202;16.260;2023-10-08T05:02:20;5.93;;;3.60;;
48205;SDS011;33995;48.202;16.260;2023-10-08T05:05:08;4.60;;;3.57;;
48205;SDS011;33995;48.202;16.260;2023-10-08T05:07:46;5.73;;;3.60;;
48205;SDS011;33995;48.202;16.260;2023-10-08T05:10:14;7.20;;;3.50;;
48205;SDS011;33995;48.202;16.260;2023-10-08T05:12:56;7.07;;;3.50;;
48205;SDS011;33995;48.202;16.260;2023-10-08T05:15:41;5.90;;;3.37;;
48205;SDS011;33995;48.202;16.260;2023-10-08T05:18:34;4.63;;;3.40;;
48205;SDS011;33995;48.202;16.260;2023-10-08T05:21:46;6.93;;;3.40;;
48205;SDS011;33995;48.202;16.260;2023-10-08T05:24:47;5.33;;;3.60;;
48205;SDS011;33995;48.202;16.260;2023-10-08T05:27:40;7.03;;;3.50;;
48205;SDS011;33995;48.202;16.260;2023-10-08T05:30:26;7.23;;;3.57;;
48205;SDS011;33995;48.202;16.260;2023-10-08T05:33:11;5.47;;;3.70;;
48205;SDS011;33995;48.202;16.260;2023-10-08T05:35:59;6.53;;;3.90;;
48205;SDS011;33995;48.202;16.260;2023-10-08T05:38:54;7.27;;;3.27;;
48205;SDS011;33995;48.202;16.260;2023-10-08T05:41:52;6.93;;;3.67;;
48205;SDS011;33995;48.202;16.260;2023-10-08T05:44:56;6.00;;;3.80;;
48205;SDS011;33995;48.202;16.260;2023-10-08T05:47:41;5.47;;;3.40;;
48205;SDS011;33995;48.202;16.260;2023-10-08T05:50:30;7.13;;;3.37;;
48205;SDS011;33995;48.202;16.260;2023-10-08T05:53:28;5.33;;;3.13;;
48205;SDS011;33995;48.202;16.260;2023-10-08T05:56:22;5.50;;;3.40;;
48205;SDS011;33995;48.202;16.260;2023-10-08T05:59:11;6.23;;;3.70;;
48205;SDS011;33995;48.202;16.260;2023-10-08T06:01:57;5.90;;;3.30;;
48205;SDS011;33995;48.202;16.260;2023-10-08T06:04:36;6.93;;;3.63;;
48205;SDS011;33995;48.202;16.260;2023-10-08T06:07:23;6.77;;;3.73;;
48205;SDS011;33995;48.202;16.260;2023-10-08T06:10:12;6.87;;;3.53;;
48205;SDS011;33995;48.202;16.260;2023-10-08T06:13:16;5.50;;;3.60;;
48205;SDS011;33995;48.202;16.260;2023-10-08T06:15:49;5.03;;;3.70;;
48205;SDS011;33995;48.202;16.260;2023-10-08T06:18:30;6.20;;;3.40;;
48205;SDS011;33995;48.202;16.260;2023-10-08T06:21:02;7.47;;;3.50;;
48205;SDS011;33995;48.202;16.260;2023-10-08T06:23:39;7.73;;;3.50;;
48205;SDS011;33995;48.202;16.260;2023-10-08T06:26:12;7.57;;;3.80;;
48205;SDS011;33995;48.202;16.260;2023-10-08T06:28:43;4.43;;;3.37;;
48205;SDS011;33995;48.202;16.260;2023-10-08T06:31:13;4.87;;;3.40;;
48205;SDS011;33995;48.202;16.260;2023-10-08T06:33:44;4.87;;;3.70;;
48205;SDS011;33995;48.202;16.260;2023-10-08T06:36:13;5.97;;;3.63;;
48205;SDS011;33995;48.202;16.260;2023-10-08T06:38:43;7.97;;;3.50;;
48205;SDS011;33995;48.202;16.260;2023-10-08T06:41:17;6.43;;;3.30;;
48205;SDS011;33995;48.202;16.260;2023-10-08T06:43:55;6.43;;;3.70;;
48205;SDS011;33995;48.202;16.260;2023-10-08T06:46:33;5.60;;;3.57;;
48205;SDS011;33995;48.202;16.260;2023-10-08T06:49:03;5.43;;;3.43;;
48205;SDS011;33995;48.202;16.260;2023-10-08T06:51:46;7.43;;;3.53;;
48205;SDS011;33995;48.202;16.260;2023-10-08T06:54:16;6.40;;;3.60;;
48205;SDS011;33995;48.202;16.260;2023-10-08T06:56:54;8.23;;;3.80;;
48205;SDS011;33995;48.202;16.260;2023-10-08T06:59:23;7.90;;;4.00;;
48205;SDS011;33995;48.202;16.260;2023-10-08T07:02:00;6.60;;;3.73;;
48205;SDS011;33995;48.202;16.260;2023-10-08T07:04:29;8.87;;;4.13;;
48205;SDS011;33995;48.202;16.260;2023-10-08T07:06:56;5.20;;;3.80;;
48205;SDS011;33995;48.202;16.260;2023-10-08T07:09:28;6.63;;;3.70;;
48205;SDS011;33995;48.202;16.260;2023-10-08T07:12:01;6.07;;;3.63;;
48205;SDS011;33995;48.202;16.260;2023-10-08T07:14:34;5.83;;;3.67;;
48205;SDS011;33995;48.202;16.260;2023-10-08T07:17:05;6.60;;;3.53;;
48205;SDS011;33995;48.202;16.260;2023-10-08T07:19:38;6.67;;;3.30;;
48205;SDS011;33995;48.202;16.260;2023-10-08T07:22:11;7.73;;;3.90;;
48205;SDS011;33995;48.202;16.260;2023-10-08T07:25:04;8.47;;;3.60;;
48205;SDS011;33995;48.202;16.260;2023-10-08T07:27:36;8.87;;;4.40;;
48205;SDS011;33995;48.202;16.260;2023-10-08T07:30:07;6.27;;;4.00;;
48205;SDS011;33995;48.202;16.260;2023-10-08T07:32:38;7.00;;;3.67;;
48205;SDS011;33995;48.202;16.260;2023-10-08T07:35:07;7.10;;;3.60;;
48205;SDS011;33995;48.202;16.260;2023-10-08T07:37:55;7.23;;;3.40;;
48205;SDS011;33995;48.202;16.260;2023-10-08T07:40:27;7.07;;;3.80;;
48205;SDS011;33995;48.202;16.260;2023-10-08T07:42:58;8.47;;;3.60;;
48205;SDS011;33995;48.202;16.260;2023-10-08T07:45:38;6.83;;;3.40;;
48205;SDS011;33995;48.202;16.260;2023-10-08T07:48:15;7.43;;;3.53;;
48205;SDS011;33995;48.202;16.260;2023-10-08T07:50:44;5.37;;;3.30;;
48205;SDS011;33995;48.202;16.260;2023-10-08T07:53:16;7.03;;;3.83;;
48205;SDS011;33995;48.202;16.260;2023-10-08T07:55:49;5.07;;;3.40;;
48205;SDS011;33995;48.202;16.260;2023-10-08T07:58:22;6.17;;;3.40;;
48205;SDS011;33995;48.202;16.260;2023-10-08T08:00:57;6.77;;;3.60;;
48205;SDS011;33995;48.202;16.260;2023-10-08T08:03:30;8.07;;;3.77;;
48205;SDS011;33995;48.202;16.260;2023-10-08T08:06:04;6.13;;;4.00;;
48205;SDS011;33995;48.202;16.260;2023-10-08T08:08:36;7.20;;;3.70;;
48205;SDS011;33995;48.202;16.260;2023-10-08T08:11:08;7.17;;;3.67;;
48205;SDS011;33995;48.202;16.260;2023-10-08T08:13:45;5.27;;;3.63;;
48205;SDS011;33995;48.202;16.260;2023-10-08T08:16:13;5.70;;;3.57;;
48205;SDS011;33995;48.202;16.260;2023-10-08T08:18:48;5.43;;;3.60;;
48205;SDS011;33995;48.202;16.260;2023-10-08T08:21:27;7.90;;;3.30;;
48205;SDS011;33995;48.202;16.260;2023-10-08T08:24:01;5.23;;;3.70;;
48205;SDS011;33995;48.202;16.260;2023-10-08T08:26:56;8.20;;;4.00;;
48205;SDS011;33995;48.202;16.260;2023-10-08T08:29:39;5.73;;;3.57;;
48205;SDS011;33995;48.202;16.260;2023-10-08T08:32:15;6.83;;;3.73;;
48205;SDS011;33995;48.202;16.260;2023-10-08T08:34:48;6.23;;;3.73;;
48205;SDS011;33995;48.202;16.260;2023-10-08T08:37:20;5.33;;;3.67;;
48205;SDS011;33995;48.202;16.260;2023-10-08T08:39:57;5.37;;;3.37;;
48205;SDS011;33995;48.202;16.260;2023-10-08T08:42:28;4.70;;;3.50;;
48205;SDS011;33995;48.202;16.260;2023-10-08T08:45:05;8.40;;;3.90;;
48205;SDS011;33995;48.202;16.260;2023-10-08T08:47:45;5.67;;;3.47;;
48205;SDS011;33995;48.202;16.260;2023-10-08T08:50:13;6.07;;;3.53;;
48205;SDS011;33995;48.202;16.260;2023-10-08T08:52:42;6.50;;;3.70;;
48205;SDS011;33995;48.202;16.260;2023-10-08T08:55:15;6.07;;;3.40;;
48205;SDS011;33995;48.202;16.260;2023-10-08T08:57:48;6.97;;;3.70;;
48205;SDS011;33995;48.202;16.260;2023-10-08T09:00:23;5.73;;;3.57;;
48205;SDS011;33995;48.202;16.260;2023-10-08T09:02:58;8.73;;;3.50;;
48205;SDS011;33995;48.202;16.260;2023-10-08T09:05:35;7.27;;;3.47;;
48205;SDS011;33995;48.202;16.260;2023-10-08T09:08:12;5.93;;;3.57;;
48205;SDS011;33995;48.202;16.260;2023-10-08T09:10:39;7.63;;;3.87;;
48205;SDS011;33995;48.202;16.260;2023-10-08T09:13:19;6.37;;;3.60;;
48205;SDS011;33995;48.202;16.260;2023-10-08T09:16:02;8.07;;;3.73;;
48205;SDS011;33995;48.202;16.260;2023-10-08T09:18:37;6.97;;;3.00;;
48205;SDS011;33995;48.202;16.260;2023-10-08T09:21:09;4.43;;;2.30;;
48205;SDS011;33995;48.202;16.260;2023-10-08T09:23:43;4.80;;;2.03;;
48205;SDS011;33995;48.202;16.260;2023-10-08T09:26:16;4.07;;;1.87;;
48205;SDS011;33995;48.202;16.260;2023-10-08T09:28:48;3.23;;;1.90;;
48205;SDS011;33995;48.202;16.260;2023-10-08T09:31:18;3.37;;;1.70;;
48205;SDS011;33995;48.202;16.260;2023-10-08T09:33:55;3.10;;;1.60;;
48205;SDS011;33995;48.202;16.260;2023-10-08T09:36:23;2.07;;;1.30;;
48205;SDS011;33995;48.202;16.260;2023-10-08T09:39:03;4.57;;;1.40;;
48205;SDS011;33995;48.202;16.260;2023-10-08T09:41:35;2.53;;;1.13;;
48205;SDS011;33995;48.202;16.260;2023-10-08T09:44:13;1.43;;;1.10;;
48205;SDS011;33995;48.202;16.260;2023-10-08T09:46:44;3.10;;;1.00;;
48205;SDS011;33995;48.202;16.260;2023-10-08T09:49:25;2.23;;;0.80;;
48205;SDS011;33995;48.202;16.260;2023-10-08T09:52:47;1.17;;;0.57;;
48205;SDS011;33995;48.202;16.260;2023-10-08T09:55:25;2.90;;;0.90;;
48205;SDS011;33995;48.202;16.260;2023-10-08T09:57:59;4.73;;;0.60;;
48205;SDS011;33995;48.202;16.260;2023-10-08T10:00:30;0.67;;;0.40;;
48205;SDS011;33995;48.202;16.260;2023-10-08T10:03:00;1.20;;;0.47;;
48205;SDS011;33995;48.202;16.260;2023-10-08T10:05:32;2.43;;;0.60;;
48205;SDS011;33995;48.202;16.260;2023-10-08T10:08:09;0.70;;;0.40;;
48205;SDS011;33995;48.202;16.260;2023-10-08T10:10:39;0.40;;;0.40;;
48205;SDS011;33995;48.202;16.260;2023-10-08T10:13:14;2.63;;;0.40;;
48205;SDS011;33995;48.202;16.260;2023-10-08T10:15:48;0.30;;;0.20;;
48205;SDS011;33995;48.202;16.260;2023-10-08T10:23:45;1.60;;;0.40;;
48205;SDS011;33995;48.202;16.260;2023-10-08T10:26:22;0.30;;;0.30;;
48205;SDS011;33995;48.202;16.260;2023-10-08T10:29:17;1.33;;;0.40;;
48205;SDS011;33995;48.202;16.260;2023-10-08T10:31:51;0.50;;;0.50;;
48205;SDS011;33995;48.202;16.260;2023-10-08T10:34:30;1.50;;;0.60;;
48205;SDS011;33995;48.202;16.260;2023-10-08T10:37:04;1.03;;;0.40;;
48205;SDS011;33995;48.202;16.260;2023-10-08T10:39:54;0.73;;;0.30;;
48205;SDS011;33995;48.202;16.260;2023-10-08T10:42:47;0.97;;;0.30;;
48205;SDS011;33995;48.202;16.260;2023-10-08T10:45:30;1.23;;;0.30;;
48205;SDS011;33995;48.202;16.260;2023-10-08T10:48:12;0.37;;;0.20;;
48205;SDS011;33995;48.202;16.260;2023-10-08T10:50:47;0.40;;;0.40;;
48205;SDS011;33995;48.202;16.260;2023-10-08T10:53:37;0.50;;;0.30;;
48205;SDS011;33995;48.202;16.260;2023-10-08T10:56:37;0.53;;;0.30;;
48205;SDS011;33995;48.202;16.260;2023-10-08T10:59:26;0.60;;;0.47;;
48205;SDS011;33995;48.202;16.260;2023-10-08T11:01:58;0.20;;;0.20;;
48205;SDS011;33995;48.202;16.260;2023-10-08T11:04:35;0.97;;;0.30;;
48205;SDS011;33995;48.202;16.260;2023-10-08T11:07:20;1.70;;;0.57;;
48205;SDS011;33995;48.202;16.260;2023-10-08T11:09:53;0.50;;;0.50;;
48205;SDS011;33995;48.202;16.260;2023-10-08T11:12:26;0.60;;;0.50;;
48205;SDS011;33995;48.202;16.260;2023-10-08T11:15:10;0.60;;;0.40;;
48205;SDS011;33995;48.202;16.260;2023-10-08T11:17:46;0.50;;;0.30;;
48205;SDS011;33995;48.202;16.260;2023-10-08T11:20:28;1.27;;;0.30;;
48205;SDS011;33995;48.202;16.260;2023-10-08T11:23:01;0.40;;;0.30;;
48205;SDS011;33995;48.202;16.260;2023-10-08T11:28:36;0.40;;;0.37;;
48205;SDS011;33995;48.202;16.260;2023-10-08T11:31:14;0.53;;;0.30;;
48205;SDS011;33995;48.202;16.260;2023-10-08T11:33:49;0.90;;;0.30;;
48205;SDS011;33995;48.202;16.260;2023-10-08T11:36:27;1.10;;;0.43;;
48205;SDS011;33995;48.202;16.260;2023-10-08T11:38:56;0.30;;;0.30;;
48205;SDS011;33995;48.202;16.260;2023-10-08T11:41:29;0.40;;;0.20;;
48205;SDS011;33995;48.202;16.260;2023-10-08T11:43:58;1.03;;;0.27;;
48205;SDS011;33995;48.202;16.260;2023-10-08T11:46:27;1.10;;;0.40;;
48205;SDS011;33995;48.202;16.260;2023-10-08T11:49:08;0.70;;;0.40;;
48205;SDS011;33995;48.202;16.260;2023-10-08T11:51:48;0.93;;;0.30;;
48205;SDS011;33995;48.202;16.260;2023-10-08T11:54:19;0.30;;;0.20;;
48205;SDS011;33995;48.202;16.260;2023-10-08T11:56:53;0.30;;;0.30;;
48205;SDS011;33995;48.202;16.260;2023-10-08T11:59:23;0.43;;;0.20;;
48205;SDS011;33995;48.202;16.260;2023-10-08T12:01:52;1.23;;;0.40;;
48205;SDS011;33995;48.202;16.260;2023-10-08T12:04:23;0.30;;;0.30;;
48205;SDS011;33995;48.202;16.260;2023-10-08T12:07:00;0.20;;;0.20;;
48205;SDS011;33995;48.202;16.260;2023-10-08T12:09:35;0.30;;;0.30;;
48205;SDS011;33995;48.202;16.260;2023-10-08T12:12:09;0.20;;;0.20;;
48205;SDS011;33995;48.202;16.260;2023-10-08T12:14:38;0.30;;;0.30;;
48205;SDS011;33995;48.202;16.260;2023-10-08T12:17:06;0.33;;;0.33;;
48205;SDS011;33995;48.202;16.260;2023-10-08T12:19:40;0.40;;;0.40;;
48205;SDS011;33995;48.202;16.260;2023-10-08T12:22:14;1.03;;;0.30;;
48205;SDS011;33995;48.202;16.260;2023-10-08T12:24:49;2.07;;;1.47;;
48205;SDS011;33995;48.202;16.260;2023-10-08T12:27:25;1.10;;;0.50;;
48205;SDS011;33995;48.202;16.260;2023-10-08T12:29:55;1.10;;;0.77;;
48205;SDS011;33995;48.202;16.260;2023-10-08T12:32:28;1.73;;;0.60;;
48205;SDS011;33995;48.202;16.260;2023-10-08T12:35:01;0.80;;;0.60;;
48205;SDS011;33995;48.202;16.260;2023-10-08T12:37:30;0.80;;;0.80;;
48205;SDS011;33995;48.202;16.260;2023-10-08T12:40:01;1.43;;;0.80;;
48205;SDS011;33995;48.202;16.260;2023-10-08T12:42:39;2.10;;;0.70;;
48205;SDS011;33995;48.202;16.260;2023-10-08T12:45:07;1.53;;;1.10;;
48205;SDS011;33995;48.202;16.260;2023-10-08T12:47:41;4.30;;;2.77;;
48205;SDS011;33995;48.202;16.260;2023-10-08T12:50:16;3.43;;;2.20;;
48205;SDS011;33995;48.202;16.260;2023-10-08T12:52:47;2.40;;;1.60;;
48205;SDS011;33995;48.202;16.260;2023-10-08T12:55:23;2.37;;;1.50;;
48205;SDS011;33995;48.202;16.260;2023-10-08T12:57:53;1.80;;;1.00;;
48205;SDS011;33995;48.202;16.260;2023-10-08T13:00:26;1.63;;;1.33;;
48205;SDS011;33995;48.202;16.260;2023-10-08T13:03:00;1.90;;;1.50;;
48205;SDS011;33995;48.202;16.260;2023-10-08T13:05:37;1.50;;;1.40;;
48205;SDS011;33995;48.202;16.260;2023-10-08T13:08:09;2.73;;;1.30;;
48205;SDS011;33995;48.202;16.260;2023-10-08T13:10:42;1.93;;;1.30;;
48205;SDS011;33995;48.202;16.260;2023-10-08T13:13:17;2.53;;;1.43;;
48205;SDS011;33995;48.202;16.260;2023-10-08T13:15:47;1.90;;;1.47;;
48205;SDS011;33995;48.202;16.260;2023-10-08T13:18:17;2.47;;;1.33;;
48205;SDS011;33995;48.202;16.260;2023-10-08T13:20:46;1.77;;;1.50;;
48205;SDS011;33995;48.202;16.260;2023-10-08T13:23:17;3.53;;;1.67;;
48205;SDS011;33995;48.202;16.260;2023-10-08T13:25:53;1.93;;;1.40;;
48205;SDS011;33995;48.202;16.260;2023-10-08T13:28:35;2.93;;;1.63;;
48205;SDS011;33995;48.202;16.260;2023-10-08T13:31:11;2.53;;;1.70;;
48205;SDS011;33995;48.202;16.260;2023-10-08T13:33:47;3.37;;;1.70;;
48205;SDS011;33995;48.202;16.260;2023-10-08T13:36:37;3.50;;;1.70;;
48205;SDS011;33995;48.202;16.260;2023-10-08T13:39:07;3.03;;;1.80;;
48205;SDS011;33995;48.202;16.260;2023-10-08T13:41:51;2.23;;;1.83;;
48205;SDS011;33995;48.202;16.260;2023-10-08T13:44:24;2.00;;;1.80;;
48205;SDS011;33995;48.202;16.260;2023-10-08T13:47:00;2.23;;;1.90;;
48205;SDS011;33995;48.202;16.260;2023-10-08T13:49:38;2.87;;;1.70;;
48205;SDS011;33995;48.202;16.260;2023-10-08T13:52:19;2.37;;;1.93;;
48205;SDS011;33995;48.202;16.260;2023-10-08T13:54:52;1.87;;;1.73;;
48205;SDS011;33995;48.202;16.260;2023-10-08T13:57:25;2.30;;;1.90;;
48205;SDS011;33995;48.202;16.260;2023-10-08T14:00:09;3.80;;;2.77;;
48205;SDS011;33995;48.202;16.260;2023-10-08T14:02:44;3.73;;;2.50;;
48205;SDS011;33995;48.202;16.260;2023-10-08T14:05:18;3.43;;;2.10;;
48205;SDS011;33995;48.202;16.260;2023-10-08T14:07:57;2.23;;;1.80;;
48205;SDS011;33995;48.202;16.260;2023-10-08T14:10:38;2.63;;;1.80;;
48205;SDS011;33995;48.202;16.260;2023-10-08T14:13:15;1.80;;;1.60;;
48205;SDS011;33995;48.202;16.260;2023-10-08T14:15:58;3.17;;;1.93;;
48205;SDS011;33995;48.202;16.260;2023-10-08T14:18:34;3.77;;;2.30;;
48205;SDS011;33995;48.202;16.260;2023-10-08T14:21:10;3.67;;;2.10;;
48205;SDS011;33995;48.202;16.260;2023-10-08T14:23:43;4.87;;;2.10;;
48205;SDS011;33995;48.202;16.260;2023-10-08T14:26:17;3.07;;;1.97;;
48205;SDS011;33995;48.202;16.260;2023-10-08T14:28:51;3.70;;;2.10;;
48205;SDS011;33995;48.202;16.260;2023-10-08T14:31:30;2.17;;;1.80;;
48205;SDS011;33995;48.202;16.260;2023-10-08T14:34:05;3.47;;;2.60;;
48205;SDS011;33995;48.202;16.260;2023-10-08T14:36:59;2.97;;;2.20;;
48205;SDS011;33995;48.202;16.260;2023-10-08T14:39:50;2.90;;;2.20;;
48205;SDS011;33995;48.202;16.260;2023-10-08T14:42:53;3.33;;;2.33;;
48205;SDS011;33995;48.202;16.260;2023-10-08T14:45:28;2.70;;;2.10;;
48205;SDS011;33995;48.202;16.260;2023-10-08T14:48:05;4.87;;;2.30;;
48205;SDS011;33995;48.202;16.260;2023-10-08T14:50:40;3.00;;;2.27;;
48205;SDS011;33995;48.202;16.260;2023-10-08T14:53:10;3.20;;;2.40;;
48205;SDS011;33995;48.202;16.260;2023-10-08T14:55:40;2.70;;;1.93;;
48205;SDS011;33995;48.202;16.260;2023-10-08T14:58:11;2.50;;;2.30;;
48205;SDS011;33995;48.202;16.260;2023-10-08T15:00:43;2.53;;;2.20;;
48205;SDS011;33995;48.202;16.260;2023-10-08T15:03:23;3.77;;;2.27;;
48205;SDS011;33995;48.202;16.260;2023-10-08T15:06:05;2.70;;;2.20;;
48205;SDS011;33995;48.202;16.260;2023-10-08T15:08:42;7.33;;;4.70;;
48205;SDS011;33995;48.202;16.260;2023-10-08T15:11:17;8.17;;;5.60;;
48205;SDS011;33995;48.202;16.260;2023-10-08T15:13:54;5.83;;;4.20;;
48205;SDS011;33995;48.202;16.260;2023-10-08T15:16:26;3.63;;;3.00;;
48205;SDS011;33995;48.202;16.260;2023-10-08T15:19:06;4.17;;;2.83;;
48205;SDS011;33995;48.202;16.260;2023-10-08T15:21:44;3.40;;;2.60;;
48205;SDS011;33995;48.202;16.260;2023-10-08T15:24:21;4.40;;;2.70;;
48205;SDS011;33995;48.202;16.260;2023-10-08T15:26:55;4.00;;;2.40;;
48205;SDS011;33995;48.202;16.260;2023-10-08T15:29:36;4.80;;;2.80;;
48205;SDS011;33995;48.202;16.260;2023-10-08T15:32:06;4.10;;;2.70;;
48205;SDS011;33995;48.202;16.260;2023-10-08T15:34:36;4.40;;;2.60;;
48205;SDS011;33995;48.202;16.260;2023-10-08T15:37:15;3.40;;;2.50;;
48205;SDS011;33995;48.202;16.260;2023-10-08T15:39:53;4.13;;;2.60;;
48205;SDS011;33995;48.202;16.260;2023-10-08T15:42:27;4.17;;;2.80;;